sensor_id;sensor_type;location;lat;lon;timestamp;P1;durP1;ratioP1;P2;durP2;ratioP2
4885;SDS011;2457;51.788;6.136;2023-04-24T00:01:02;6.23;;;3.53;;
4885;SDS011;2457;51.788;6.136;2023-04-24T00:03:29;5.00;;;2.73;;
4885;SDS011;2457;51.788;6.136;2023-04-24T00:05:56;7.47;;;3.10;;
4885;SDS011;2457;51.788;6.136;2023-04-24T00:08:25;5.77;;;2.83;;
4885;SDS011;2457;51.788;6.136;2023-04-24T00:10:52;5.30;;;2.80;;
4885;SDS011;2457;51.788;6.136;2023-04-24T00:13:19;4.87;;;2.40;;
4885;SDS011;2457;51.788;6.136;2023-04-24T00:15:47;5.10;;;2.60;;
4885;SDS011;2457;51.788;6.136;2023-04-24T00:18:14;5.27;;;2.73;;
4885;SDS011;2457;51.788;6.136;2023-04-24T00:20:41;5.27;;;2.50;;
4885;SDS011;2457;51.788;6.136;2023-04-24T00:23:09;4.60;;;2.20;;
4885;SDS011;2457;51.788;6.136;2023-04-24T00:25:37;4.63;;;2.30;;
4885;SDS011;2457;51.788;6.136;2023-04-24T00:28:04;5.70;;;2.37;;
4885;SDS011;2457;51.788;6.136;2023-04-24T00:30:32;5.40;;;2.23;;
4885;SDS011;2457;51.788;6.136;2023-04-24T00:32:59;5.17;;;2.00;;
4885;SDS011;2457;51.788;6.136;2023-04-24T00:35:26;4.33;;;2.00;;
4885;SDS011;2457;51.788;6.136;2023-04-24T00:37:53;4.27;;;1.87;;
4885;SDS011;2457;51.788;6.136;2023-04-24T00:40:21;4.80;;;1.90;;
4885;SDS011;2457;51.788;6.136;2023-04-24T00:42:48;4.00;;;1.67;;
4885;SDS011;2457;51.788;6.136;2023-04-24T00:45:15;5.40;;;2.57;;
4885;SDS011;2457;51.788;6.136;2023-04-24T00:47:42;5.20;;;2.40;;
4885;SDS011;2457;51.788;6.136;2023-04-24T00:50:10;5.17;;;2.40;;
4885;SDS011;2457;51.788;6.136;2023-04-24T00:52:39;5.30;;;2.67;;
4885;SDS011;2457;51.788;6.136;2023-04-24T00:55:07;6.10;;;2.80;;
4885;SDS011;2457;51.788;6.136;2023-04-24T00:57:34;6.73;;;3.63;;
4885;SDS011;2457;51.788;6.136;2023-04-24T01:00:02;5.70;;;3.20;;
4885;SDS011;2457;51.788;6.136;2023-04-24T01:02:29;7.07;;;3.43;;
4885;SDS011;2457;51.788;6.136;2023-04-24T01:04:57;7.30;;;3.33;;
4885;SDS011;2457;51.788;6.136;2023-04-24T01:07:24;6.80;;;3.70;;
4885;SDS011;2457;51.788;6.136;2023-04-24T01:09:51;6.30;;;3.57;;
4885;SDS011;2457;51.788;6.136;2023-04-24T01:12:19;6.93;;;3.70;;
4885;SDS011;2457;51.788;6.136;2023-04-24T01:14:46;6.60;;;3.50;;
4885;SDS011;2457;51.788;6.136;2023-04-24T01:17:13;7.70;;;3.60;;
4885;SDS011;2457;51.788;6.136;2023-04-24T01:19:41;8.47;;;3.73;;
4885;SDS011;2457;51.788;6.136;2023-04-24T01:22:11;5.90;;;3.27;;
4885;SDS011;2457;51.788;6.136;2023-04-24T01:24:38;9.50;;;3.80;;
4885;SDS011;2457;51.788;6.136;2023-04-24T01:27:05;6.83;;;3.93;;
4885;SDS011;2457;51.788;6.136;2023-04-24T01:29:33;7.57;;;4.37;;
4885;SDS011;2457;51.788;6.136;2023-04-24T01:32:02;7.13;;;3.53;;
4885;SDS011;2457;51.788;6.136;2023-04-24T01:34:29;7.17;;;4.00;;
4885;SDS011;2457;51.788;6.136;2023-04-24T01:36:56;10.37;;;5.23;;
4885;SDS011;2457;51.788;6.136;2023-04-24T01:39:24;8.47;;;4.33;;
4885;SDS011;2457;51.788;6.136;2023-04-24T01:41:51;9.20;;;4.37;;
4885;SDS011;2457;51.788;6.136;2023-04-24T01:44:19;10.73;;;4.10;;
4885;SDS011;2457;51.788;6.136;2023-04-24T01:46:47;9.57;;;4.53;;
4885;SDS011;2457;51.788;6.136;2023-04-24T01:49:14;7.83;;;4.83;;
4885;SDS011;2457;51.788;6.136;2023-04-24T01:51:41;10.53;;;4.90;;
4885;SDS011;2457;51.788;6.136;2023-04-24T01:54:09;8.20;;;4.60;;
4885;SDS011;2457;51.788;6.136;2023-04-24T01:56:36;7.27;;;4.50;;
4885;SDS011;2457;51.788;6.136;2023-04-24T01:59:05;7.77;;;4.43;;
4885;SDS011;2457;51.788;6.136;2023-04-24T02:01:33;10.47;;;5.20;;
4885;SDS011;2457;51.788;6.136;2023-04-24T02:04:02;11.17;;;4.63;;
4885;SDS011;2457;51.788;6.136;2023-04-24T02:06:29;10.57;;;4.97;;
4885;SDS011;2457;51.788;6.136;2023-04-24T02:08:58;12.77;;;5.10;;
4885;SDS011;2457;51.788;6.136;2023-04-24T02:11:25;7.80;;;5.00;;
4885;SDS011;2457;51.788;6.136;2023-04-24T02:13:53;10.60;;;4.67;;
4885;SDS011;2457;51.788;6.136;2023-04-24T02:16:20;9.33;;;5.17;;
4885;SDS011;2457;51.788;6.136;2023-04-24T02:18:47;8.37;;;4.93;;
4885;SDS011;2457;51.788;6.136;2023-04-24T02:21:15;15.10;;;4.80;;
4885;SDS011;2457;51.788;6.136;2023-04-24T02:23:42;11.73;;;4.87;;
4885;SDS011;2457;51.788;6.136;2023-04-24T02:26:09;12.57;;;5.47;;
4885;SDS011;2457;51.788;6.136;2023-04-24T02:28:37;10.13;;;5.73;;
4885;SDS011;2457;51.788;6.136;2023-04-24T02:31:04;8.40;;;4.87;;
4885;SDS011;2457;51.788;6.136;2023-04-24T02:33:32;9.67;;;5.03;;
4885;SDS011;2457;51.788;6.136;2023-04-24T02:35:59;10.13;;;5.47;;
4885;SDS011;2457;51.788;6.136;2023-04-24T02:38:26;10.13;;;6.00;;
4885;SDS011;2457;51.788;6.136;2023-04-24T02:40:54;9.70;;;5.23;;
4885;SDS011;2457;51.788;6.136;2023-04-24T02:43:21;11.90;;;5.87;;
4885;SDS011;2457;51.788;6.136;2023-04-24T02:45:48;10.20;;;6.03;;
4885;SDS011;2457;51.788;6.136;2023-04-24T02:48:16;11.43;;;5.57;;
4885;SDS011;2457;51.788;6.136;2023-04-24T02:50:43;11.07;;;5.90;;
4885;SDS011;2457;51.788;6.136;2023-04-24T02:53:11;12.47;;;6.67;;
4885;SDS011;2457;51.788;6.136;2023-04-24T02:55:38;12.37;;;6.67;;
4885;SDS011;2457;51.788;6.136;2023-04-24T02:58:05;13.23;;;7.37;;
4885;SDS011;2457;51.788;6.136;2023-04-24T03:00:33;12.67;;;6.73;;
4885;SDS011;2457;51.788;6.136;2023-04-24T03:03:00;10.23;;;6.40;;
4885;SDS011;2457;51.788;6.136;2023-04-24T03:05:27;13.73;;;6.77;;
4885;SDS011;2457;51.788;6.136;2023-04-24T03:07:54;10.90;;;6.67;;
4885;SDS011;2457;51.788;6.136;2023-04-24T03:10:22;12.10;;;7.23;;
4885;SDS011;2457;51.788;6.136;2023-04-24T03:12:49;12.10;;;6.83;;
4885;SDS011;2457;51.788;6.136;2023-04-24T03:15:16;13.93;;;7.13;;
4885;SDS011;2457;51.788;6.136;2023-04-24T03:17:43;9.67;;;6.30;;
4885;SDS011;2457;51.788;6.136;2023-04-24T03:20:11;11.47;;;6.03;;
4885;SDS011;2457;51.788;6.136;2023-04-24T03:22:38;12.90;;;6.30;;
4885;SDS011;2457;51.788;6.136;2023-04-24T03:25:05;12.30;;;7.50;;
4885;SDS011;2457;51.788;6.136;2023-04-24T03:27:35;16.07;;;7.63;;
4885;SDS011;2457;51.788;6.136;2023-04-24T03:30:02;11.93;;;6.73;;
4885;SDS011;2457;51.788;6.136;2023-04-24T03:32:29;12.43;;;6.90;;
4885;SDS011;2457;51.788;6.136;2023-04-24T03:34:58;14.60;;;7.27;;
4885;SDS011;2457;51.788;6.136;2023-04-24T03:37:26;11.77;;;7.03;;
4885;SDS011;2457;51.788;6.136;2023-04-24T03:39:53;10.53;;;6.67;;
4885;SDS011;2457;51.788;6.136;2023-04-24T03:42:21;10.90;;;6.77;;
4885;SDS011;2457;51.788;6.136;2023-04-24T03:44:48;12.40;;;6.73;;
4885;SDS011;2457;51.788;6.136;2023-04-24T03:47:15;10.83;;;6.20;;
4885;SDS011;2457;51.788;6.136;2023-04-24T03:49:42;13.47;;;7.20;;
4885;SDS011;2457;51.788;6.136;2023-04-24T03:52:10;10.27;;;6.30;;
4885;SDS011;2457;51.788;6.136;2023-04-24T03:54:37;14.00;;;7.28;;
4885;SDS011;2457;51.788;6.136;2023-04-24T03:57:04;10.63;;;6.43;;
4885;SDS011;2457;51.788;6.136;2023-04-24T03:59:31;14.37;;;7.67;;
4885;SDS011;2457;51.788;6.136;2023-04-24T04:01:59;12.47;;;6.47;;
4885;SDS011;2457;51.788;6.136;2023-04-24T04:04:26;10.87;;;6.90;;
4885;SDS011;2457;51.788;6.136;2023-04-24T04:06:53;12.57;;;6.37;;
4885;SDS011;2457;51.788;6.136;2023-04-24T04:09:20;12.53;;;6.20;;
4885;SDS011;2457;51.788;6.136;2023-04-24T04:11:48;11.07;;;6.17;;
4885;SDS011;2457;51.788;6.136;2023-04-24T04:14:15;13.20;;;7.10;;
4885;SDS011;2457;51.788;6.136;2023-04-24T04:16:42;11.27;;;7.27;;
4885;SDS011;2457;51.788;6.136;2023-04-24T04:19:10;11.83;;;6.77;;
4885;SDS011;2457;51.788;6.136;2023-04-24T04:21:37;11.40;;;6.50;;
4885;SDS011;2457;51.788;6.136;2023-04-24T04:24:04;12.03;;;6.80;;
4885;SDS011;2457;51.788;6.136;2023-04-24T04:26:33;15.40;;;7.07;;
4885;SDS011;2457;51.788;6.136;2023-04-24T04:29:01;15.07;;;7.03;;
4885;SDS011;2457;51.788;6.136;2023-04-24T04:31:29;12.73;;;6.60;;
4885;SDS011;2457;51.788;6.136;2023-04-24T04:33:57;11.80;;;6.50;;
4885;SDS011;2457;51.788;6.136;2023-04-24T04:36:24;15.43;;;6.40;;
4885;SDS011;2457;51.788;6.136;2023-04-24T04:38:52;13.40;;;6.70;;
4885;SDS011;2457;51.788;6.136;2023-04-24T04:41:20;11.03;;;6.13;;
4885;SDS011;2457;51.788;6.136;2023-04-24T04:43:48;10.97;;;5.67;;
4885;SDS011;2457;51.788;6.136;2023-04-24T04:46:15;12.17;;;5.67;;
4885;SDS011;2457;51.788;6.136;2023-04-24T04:48:42;10.23;;;5.90;;
4885;SDS011;2457;51.788;6.136;2023-04-24T04:51:10;15.23;;;6.47;;
4885;SDS011;2457;51.788;6.136;2023-04-24T04:53:37;12.03;;;6.03;;
4885;SDS011;2457;51.788;6.136;2023-04-24T04:56:04;13.47;;;6.23;;
4885;SDS011;2457;51.788;6.136;2023-04-24T04:58:31;10.10;;;5.60;;
4885;SDS011;2457;51.788;6.136;2023-04-24T05:00:59;9.93;;;5.70;;
4885;SDS011;2457;51.788;6.136;2023-04-24T05:03:26;11.43;;;5.17;;
4885;SDS011;2457;51.788;6.136;2023-04-24T05:05:53;11.70;;;5.70;;
4885;SDS011;2457;51.788;6.136;2023-04-24T05:08:21;12.00;;;5.60;;
4885;SDS011;2457;51.788;6.136;2023-04-24T05:10:48;10.97;;;5.77;;
4885;SDS011;2457;51.788;6.136;2023-04-24T05:13:15;9.20;;;4.83;;
4885;SDS011;2457;51.788;6.136;2023-04-24T05:15:43;9.47;;;5.20;;
4885;SDS011;2457;51.788;6.136;2023-04-24T05:18:10;13.03;;;5.40;;
4885;SDS011;2457;51.788;6.136;2023-04-24T05:20:37;9.83;;;5.47;;
4885;SDS011;2457;51.788;6.136;2023-04-24T05:23:05;8.97;;;4.93;;
4885;SDS011;2457;51.788;6.136;2023-04-24T05:25:32;9.27;;;5.00;;
4885;SDS011;2457;51.788;6.136;2023-04-24T05:28:01;9.23;;;5.13;;
4885;SDS011;2457;51.788;6.136;2023-04-24T05:30:28;9.83;;;5.20;;
4885;SDS011;2457;51.788;6.136;2023-04-24T05:32:56;10.20;;;4.93;;
4885;SDS011;2457;51.788;6.136;2023-04-24T05:35:23;7.67;;;4.50;;
4885;SDS011;2457;51.788;6.136;2023-04-24T05:37:51;8.90;;;5.03;;
4885;SDS011;2457;51.788;6.136;2023-04-24T05:40:18;7.70;;;4.30;;
4885;SDS011;2457;51.788;6.136;2023-04-24T05:42:45;7.87;;;4.80;;
4885;SDS011;2457;51.788;6.136;2023-04-24T05:45:12;7.97;;;3.70;;
4885;SDS011;2457;51.788;6.136;2023-04-24T05:47:42;8.23;;;4.20;;
4885;SDS011;2457;51.788;6.136;2023-04-24T05:50:11;7.80;;;3.63;;
4885;SDS011;2457;51.788;6.136;2023-04-24T05:52:39;8.27;;;4.10;;
4885;SDS011;2457;51.788;6.136;2023-04-24T05:55:06;7.90;;;4.40;;
4885;SDS011;2457;51.788;6.136;2023-04-24T05:57:33;6.70;;;4.00;;
4885;SDS011;2457;51.788;6.136;2023-04-24T06:00:01;9.53;;;4.40;;
4885;SDS011;2457;51.788;6.136;2023-04-24T06:02:28;6.70;;;3.90;;
4885;SDS011;2457;51.788;6.136;2023-04-24T06:04:58;8.00;;;3.87;;
4885;SDS011;2457;51.788;6.136;2023-04-24T06:07:25;6.33;;;3.43;;
4885;SDS011;2457;51.788;6.136;2023-04-24T06:09:53;7.17;;;3.80;;
4885;SDS011;2457;51.788;6.136;2023-04-24T06:12:20;8.27;;;3.50;;
4885;SDS011;2457;51.788;6.136;2023-04-24T06:14:47;7.37;;;3.10;;
4885;SDS011;2457;51.788;6.136;2023-04-24T06:17:15;7.00;;;3.13;;
4885;SDS011;2457;51.788;6.136;2023-04-24T06:19:42;5.33;;;2.60;;
4885;SDS011;2457;51.788;6.136;2023-04-24T06:22:10;5.70;;;2.40;;
4885;SDS011;2457;51.788;6.136;2023-04-24T06:24:37;6.00;;;2.67;;
4885;SDS011;2457;51.788;6.136;2023-04-24T06:27:04;5.80;;;2.53;;
4885;SDS011;2457;51.788;6.136;2023-04-24T06:29:32;7.20;;;2.40;;
4885;SDS011;2457;51.788;6.136;2023-04-24T06:32:00;6.60;;;2.23;;
4885;SDS011;2457;51.788;6.136;2023-04-24T06:34:27;4.90;;;2.33;;
4885;SDS011;2457;51.788;6.136;2023-04-24T06:36:54;4.40;;;2.07;;
4885;SDS011;2457;51.788;6.136;2023-04-24T06:39:21;5.90;;;2.63;;
4885;SDS011;2457;51.788;6.136;2023-04-24T06:41:49;5.30;;;1.93;;
4885;SDS011;2457;51.788;6.136;2023-04-24T06:44:17;4.60;;;1.50;;
4885;SDS011;2457;51.788;6.136;2023-04-24T06:46:44;4.60;;;1.73;;
4885;SDS011;2457;51.788;6.136;2023-04-24T06:49:11;4.77;;;1.90;;
4885;SDS011;2457;51.788;6.136;2023-04-24T06:51:40;5.20;;;2.00;;
4885;SDS011;2457;51.788;6.136;2023-04-24T06:54:07;4.60;;;1.90;;
4885;SDS011;2457;51.788;6.136;2023-04-24T06:56:35;5.97;;;2.20;;
4885;SDS011;2457;51.788;6.136;2023-04-24T06:59:02;4.50;;;1.80;;
4885;SDS011;2457;51.788;6.136;2023-04-24T07:01:29;4.23;;;1.80;;
4885;SDS011;2457;51.788;6.136;2023-04-24T07:03:56;4.20;;;1.83;;
4885;SDS011;2457;51.788;6.136;2023-04-24T07:06:24;5.23;;;1.80;;
4885;SDS011;2457;51.788;6.136;2023-04-24T07:08:51;5.00;;;1.90;;
4885;SDS011;2457;51.788;6.136;2023-04-24T07:11:18;4.83;;;1.97;;
4885;SDS011;2457;51.788;6.136;2023-04-24T07:13:46;3.77;;;1.57;;
4885;SDS011;2457;51.788;6.136;2023-04-24T07:16:13;4.90;;;2.23;;
4885;SDS011;2457;51.788;6.136;2023-04-24T07:18:40;3.80;;;1.60;;
4885;SDS011;2457;51.788;6.136;2023-04-24T07:21:08;3.97;;;1.60;;
4885;SDS011;2457;51.788;6.136;2023-04-24T07:23:35;3.90;;;1.80;;
4885;SDS011;2457;51.788;6.136;2023-04-24T07:26:03;4.30;;;1.70;;
4885;SDS011;2457;51.788;6.136;2023-04-24T07:28:30;4.53;;;1.57;;
4885;SDS011;2457;51.788;6.136;2023-04-24T07:30:57;3.80;;;1.30;;
4885;SDS011;2457;51.788;6.136;2023-04-24T07:33:26;3.90;;;1.67;;
4885;SDS011;2457;51.788;6.136;2023-04-24T07:35:53;3.73;;;1.40;;
4885;SDS011;2457;51.788;6.136;2023-04-24T07:38:21;3.70;;;1.40;;
4885;SDS011;2457;51.788;6.136;2023-04-24T07:40:48;3.83;;;1.40;;
4885;SDS011;2457;51.788;6.136;2023-04-24T07:43:15;3.63;;;1.30;;
4885;SDS011;2457;51.788;6.136;2023-04-24T07:45:43;3.23;;;1.13;;
4885;SDS011;2457;51.788;6.136;2023-04-24T07:48:10;3.67;;;1.00;;
4885;SDS011;2457;51.788;6.136;2023-04-24T07:50:39;3.70;;;1.20;;
4885;SDS011;2457;51.788;6.136;2023-04-24T07:53:07;3.10;;;0.90;;
4885;SDS011;2457;51.788;6.136;2023-04-24T07:55:34;3.30;;;0.90;;
4885;SDS011;2457;51.788;6.136;2023-04-24T07:58:01;3.43;;;1.00;;
4885;SDS011;2457;51.788;6.136;2023-04-24T08:00:29;3.83;;;1.07;;
4885;SDS011;2457;51.788;6.136;2023-04-24T08:02:56;3.30;;;1.00;;
4885;SDS011;2457;51.788;6.136;2023-04-24T08:05:23;3.50;;;1.00;;
4885;SDS011;2457;51.788;6.136;2023-04-24T08:07:51;4.37;;;1.13;;
4885;SDS011;2457;51.788;6.136;2023-04-24T08:10:19;4.57;;;1.10;;
4885;SDS011;2457;51.788;6.136;2023-04-24T08:12:46;3.93;;;1.10;;
4885;SDS011;2457;51.788;6.136;2023-04-24T08:15:13;4.93;;;1.40;;
4885;SDS011;2457;51.788;6.136;2023-04-24T08:17:41;3.77;;;1.50;;
4885;SDS011;2457;51.788;6.136;2023-04-24T08:20:08;5.47;;;2.13;;
4885;SDS011;2457;51.788;6.136;2023-04-24T08:22:38;5.10;;;2.50;;
4885;SDS011;2457;51.788;6.136;2023-04-24T08:25:05;5.47;;;2.10;;
4885;SDS011;2457;51.788;6.136;2023-04-24T08:27:33;6.43;;;3.07;;
4885;SDS011;2457;51.788;6.136;2023-04-24T08:30:00;5.37;;;2.70;;
4885;SDS011;2457;51.788;6.136;2023-04-24T08:32:27;6.23;;;3.07;;
4885;SDS011;2457;51.788;6.136;2023-04-24T08:34:58;5.37;;;2.33;;
4885;SDS011;2457;51.788;6.136;2023-04-24T08:37:25;7.77;;;2.90;;
4885;SDS011;2457;51.788;6.136;2023-04-24T08:39:53;9.27;;;3.33;;
4885;SDS011;2457;51.788;6.136;2023-04-24T08:42:20;8.73;;;3.10;;
4885;SDS011;2457;51.788;6.136;2023-04-24T08:44:48;7.03;;;2.47;;
4885;SDS011;2457;51.788;6.136;2023-04-24T08:47:16;6.80;;;2.70;;
4885;SDS011;2457;51.788;6.136;2023-04-24T08:49:43;5.90;;;2.73;;
4885;SDS011;2457;51.788;6.136;2023-04-24T08:52:12;6.00;;;2.73;;
4885;SDS011;2457;51.788;6.136;2023-04-24T08:54:39;5.27;;;2.40;;
4885;SDS011;2457;51.788;6.136;2023-04-24T08:57:07;6.60;;;2.70;;
4885;SDS011;2457;51.788;6.136;2023-04-24T08:59:35;6.50;;;2.73;;
4885;SDS011;2457;51.788;6.136;2023-04-24T09:02:03;7.57;;;3.10;;
4885;SDS011;2457;51.788;6.136;2023-04-24T09:04:31;10.23;;;2.73;;
4885;SDS011;2457;51.788;6.136;2023-04-24T09:06:59;8.37;;;3.23;;
4885;SDS011;2457;51.788;6.136;2023-04-24T09:09:27;5.40;;;2.80;;
4885;SDS011;2457;51.788;6.136;2023-04-24T09:11:55;5.73;;;2.93;;
4885;SDS011;2457;51.788;6.136;2023-04-24T09:14:23;9.50;;;3.30;;
4885;SDS011;2457;51.788;6.136;2023-04-24T09:16:50;7.57;;;3.10;;
4885;SDS011;2457;51.788;6.136;2023-04-24T09:19:17;6.23;;;2.97;;
4885;SDS011;2457;51.788;6.136;2023-04-24T09:21:45;6.93;;;3.00;;
4885;SDS011;2457;51.788;6.136;2023-04-24T09:24:17;5.40;;;2.97;;
4885;SDS011;2457;51.788;6.136;2023-04-24T09:26:46;6.13;;;2.70;;
4885;SDS011;2457;51.788;6.136;2023-04-24T09:29:14;7.43;;;2.67;;
4885;SDS011;2457;51.788;6.136;2023-04-24T09:31:43;7.00;;;3.00;;
4885;SDS011;2457;51.788;6.136;2023-04-24T09:34:10;8.70;;;3.47;;
4885;SDS011;2457;51.788;6.136;2023-04-24T09:36:38;10.90;;;2.30;;
4885;SDS011;2457;51.788;6.136;2023-04-24T09:39:12;8.00;;;2.00;;
4885;SDS011;2457;51.788;6.136;2023-04-24T09:41:44;10.57;;;2.87;;
4885;SDS011;2457;51.788;6.136;2023-04-24T09:44:12;8.77;;;3.70;;
4885;SDS011;2457;51.788;6.136;2023-04-24T09:46:46;9.97;;;2.47;;
4885;SDS011;2457;51.788;6.136;2023-04-24T09:49:12;8.03;;;2.53;;
4885;SDS011;2457;51.788;6.136;2023-04-24T09:51:41;11.00;;;2.60;;
4885;SDS011;2457;51.788;6.136;2023-04-24T09:54:15;9.50;;;2.53;;
4885;SDS011;2457;51.788;6.136;2023-04-24T09:56:44;11.43;;;2.40;;
4885;SDS011;2457;51.788;6.136;2023-04-24T09:59:17;7.20;;;2.00;;
4885;SDS011;2457;51.788;6.136;2023-04-24T10:01:40;9.63;;;2.00;;
4885;SDS011;2457;51.788;6.136;2023-04-24T10:06:46;6.70;;;1.97;;
4885;SDS011;2457;51.788;6.136;2023-04-24T10:09:15;11.10;;;2.00;;
4885;SDS011;2457;51.788;6.136;2023-04-24T10:11:43;5.80;;;2.00;;
4885;SDS011;2457;51.788;6.136;2023-04-24T10:14:13;8.20;;;1.83;;
4885;SDS011;2457;51.788;6.136;2023-04-24T10:16:40;6.67;;;1.87;;
4885;SDS011;2457;51.788;6.136;2023-04-24T10:19:09;7.93;;;1.97;;
4885;SDS011;2457;51.788;6.136;2023-04-24T10:21:38;10.90;;;2.43;;
4885;SDS011;2457;51.788;6.136;2023-04-24T10:24:08;7.77;;;2.20;;
4885;SDS011;2457;51.788;6.136;2023-04-24T10:26:36;11.70;;;2.27;;
4885;SDS011;2457;51.788;6.136;2023-04-24T10:29:03;9.90;;;2.80;;
4885;SDS011;2457;51.788;6.136;2023-04-24T10:31:33;7.57;;;2.00;;
4885;SDS011;2457;51.788;6.136;2023-04-24T10:34:00;7.53;;;2.30;;
4885;SDS011;2457;51.788;6.136;2023-04-24T10:36:28;7.00;;;2.00;;
4885;SDS011;2457;51.788;6.136;2023-04-24T10:38:59;5.70;;;1.60;;
4885;SDS011;2457;51.788;6.136;2023-04-24T10:41:26;10.97;;;2.37;;
4885;SDS011;2457;51.788;6.136;2023-04-24T10:44:12;6.20;;;1.83;;
4885;SDS011;2457;51.788;6.136;2023-04-24T10:46:44;5.90;;;1.87;;
4885;SDS011;2457;51.788;6.136;2023-04-24T10:49:08;5.17;;;1.73;;
4885;SDS011;2457;51.788;6.136;2023-04-24T10:51:46;9.27;;;2.50;;
4885;SDS011;2457;51.788;6.136;2023-04-24T10:54:26;12.47;;;2.23;;
4885;SDS011;2457;51.788;6.136;2023-04-24T10:57:28;7.90;;;2.50;;
4885;SDS011;2457;51.788;6.136;2023-04-24T10:59:29;9.77;;;1.90;;
4885;SDS011;2457;51.788;6.136;2023-04-24T11:01:57;6.37;;;2.20;;
4885;SDS011;2457;51.788;6.136;2023-04-24T11:04:31;7.63;;;1.70;;
4885;SDS011;2457;51.788;6.136;2023-04-24T11:06:58;6.60;;;1.57;;
4885;SDS011;2457;51.788;6.136;2023-04-24T11:09:26;4.77;;;1.57;;
4885;SDS011;2457;51.788;6.136;2023-04-24T11:12:04;11.53;;;1.90;;
4885;SDS011;2457;51.788;6.136;2023-04-24T11:17:31;4.40;;;1.40;;
4885;SDS011;2457;51.788;6.136;2023-04-24T11:20:10;4.30;;;1.53;;
4885;SDS011;2457;51.788;6.136;2023-04-24T11:22:38;7.47;;;1.90;;
4885;SDS011;2457;51.788;6.136;2023-04-24T11:25:09;8.33;;;2.03;;
4885;SDS011;2457;51.788;6.136;2023-04-24T11:27:39;6.40;;;1.67;;
4885;SDS011;2457;51.788;6.136;2023-04-24T11:30:06;5.40;;;1.30;;
4885;SDS011;2457;51.788;6.136;2023-04-24T11:32:34;6.00;;;1.47;;
4885;SDS011;2457;51.788;6.136;2023-04-24T11:35:06;3.93;;;1.10;;
4885;SDS011;2457;51.788;6.136;2023-04-24T11:37:44;5.50;;;1.60;;
4885;SDS011;2457;51.788;6.136;2023-04-24T11:40:04;5.47;;;1.50;;
4885;SDS011;2457;51.788;6.136;2023-04-24T11:42:38;5.50;;;1.20;;
4885;SDS011;2457;51.788;6.136;2023-04-24T11:45:10;7.47;;;2.40;;
4885;SDS011;2457;51.788;6.136;2023-04-24T11:47:34;4.80;;;1.33;;
4885;SDS011;2457;51.788;6.136;2023-04-24T11:50:02;3.93;;;1.03;;
4885;SDS011;2457;51.788;6.136;2023-04-24T11:52:29;5.00;;;1.23;;
4885;SDS011;2457;51.788;6.136;2023-04-24T11:54:57;5.03;;;1.27;;
4885;SDS011;2457;51.788;6.136;2023-04-24T11:57:25;7.03;;;1.60;;
4885;SDS011;2457;51.788;6.136;2023-04-24T11:59:54;4.47;;;1.20;;
4885;SDS011;2457;51.788;6.136;2023-04-24T12:02:22;4.80;;;1.23;;
4885;SDS011;2457;51.788;6.136;2023-04-24T12:04:50;4.90;;;1.50;;
4885;SDS011;2457;51.788;6.136;2023-04-24T12:07:17;6.20;;;1.50;;
4885;SDS011;2457;51.788;6.136;2023-04-24T12:09:45;4.47;;;1.23;;
4885;SDS011;2457;51.788;6.136;2023-04-24T12:12:13;5.50;;;1.40;;
4885;SDS011;2457;51.788;6.136;2023-04-24T12:14:44;6.83;;;1.10;;
4885;SDS011;2457;51.788;6.136;2023-04-24T12:17:12;4.23;;;1.00;;
4885;SDS011;2457;51.788;6.136;2023-04-24T12:19:44;5.90;;;1.77;;
4885;SDS011;2457;51.788;6.136;2023-04-24T12:22:08;4.00;;;1.23;;
4885;SDS011;2457;51.788;6.136;2023-04-24T12:24:35;8.10;;;1.33;;
4885;SDS011;2457;51.788;6.136;2023-04-24T12:27:04;5.57;;;1.50;;
4885;SDS011;2457;51.788;6.136;2023-04-24T12:29:31;7.00;;;1.20;;
4885;SDS011;2457;51.788;6.136;2023-04-24T12:31:58;5.70;;;1.20;;
4885;SDS011;2457;51.788;6.136;2023-04-24T12:34:26;3.87;;;1.03;;
4885;SDS011;2457;51.788;6.136;2023-04-24T12:36:53;4.90;;;1.40;;
4885;SDS011;2457;51.788;6.136;2023-04-24T12:39:20;5.77;;;1.00;;
4885;SDS011;2457;51.788;6.136;2023-04-24T12:41:55;5.70;;;1.10;;
4885;SDS011;2457;51.788;6.136;2023-04-24T12:44:33;4.20;;;1.23;;
4885;SDS011;2457;51.788;6.136;2023-04-24T12:47:01;5.10;;;1.17;;
4885;SDS011;2457;51.788;6.136;2023-04-24T12:49:29;4.27;;;1.30;;
4885;SDS011;2457;51.788;6.136;2023-04-24T12:51:57;3.93;;;0.93;;
4885;SDS011;2457;51.788;6.136;2023-04-24T12:54:24;4.77;;;1.40;;
4885;SDS011;2457;51.788;6.136;2023-04-24T12:56:51;4.23;;;1.17;;
4885;SDS011;2457;51.788;6.136;2023-04-24T12:59:19;5.20;;;1.30;;
4885;SDS011;2457;51.788;6.136;2023-04-24T13:01:46;5.33;;;1.50;;
4885;SDS011;2457;51.788;6.136;2023-04-24T13:04:13;4.90;;;1.30;;
4885;SDS011;2457;51.788;6.136;2023-04-24T13:06:41;4.70;;;1.20;;
4885;SDS011;2457;51.788;6.136;2023-04-24T13:09:09;7.37;;;1.77;;
4885;SDS011;2457;51.788;6.136;2023-04-24T13:11:36;5.40;;;1.47;;
4885;SDS011;2457;51.788;6.136;2023-04-24T13:14:03;5.27;;;1.30;;
4885;SDS011;2457;51.788;6.136;2023-04-24T13:16:30;8.00;;;1.57;;
4885;SDS011;2457;51.788;6.136;2023-04-24T13:18:58;5.10;;;1.20;;
4885;SDS011;2457;51.788;6.136;2023-04-24T13:21:25;6.23;;;1.63;;
4885;SDS011;2457;51.788;6.136;2023-04-24T13:23:52;4.37;;;1.30;;
4885;SDS011;2457;51.788;6.136;2023-04-24T13:26:20;4.93;;;1.20;;
4885;SDS011;2457;51.788;6.136;2023-04-24T13:28:47;4.40;;;1.13;;
4885;SDS011;2457;51.788;6.136;2023-04-24T13:31:14;3.93;;;0.90;;
4885;SDS011;2457;51.788;6.136;2023-04-24T13:33:41;6.23;;;1.20;;
4885;SDS011;2457;51.788;6.136;2023-04-24T13:36:09;6.90;;;0.90;;
4885;SDS011;2457;51.788;6.136;2023-04-24T13:38:36;5.10;;;1.23;;
4885;SDS011;2457;51.788;6.136;2023-04-24T13:41:03;4.37;;;0.93;;
4885;SDS011;2457;51.788;6.136;2023-04-24T13:43:31;3.90;;;1.10;;
4885;SDS011;2457;51.788;6.136;2023-04-24T13:45:58;4.50;;;1.20;;
4885;SDS011;2457;51.788;6.136;2023-04-24T13:48:27;3.40;;;0.90;;
4885;SDS011;2457;51.788;6.136;2023-04-24T13:50:54;4.13;;;1.00;;
4885;SDS011;2457;51.788;6.136;2023-04-24T13:53:22;4.40;;;1.27;;
4885;SDS011;2457;51.788;6.136;2023-04-24T13:55:49;5.50;;;1.40;;
4885;SDS011;2457;51.788;6.136;2023-04-24T13:58:16;3.80;;;1.00;;
4885;SDS011;2457;51.788;6.136;2023-04-24T14:00:44;4.77;;;1.20;;
4885;SDS011;2457;51.788;6.136;2023-04-24T14:03:11;6.50;;;1.33;;
4885;SDS011;2457;51.788;6.136;2023-04-24T14:05:38;5.83;;;1.23;;
4885;SDS011;2457;51.788;6.136;2023-04-24T14:08:05;5.20;;;1.17;;
4885;SDS011;2457;51.788;6.136;2023-04-24T14:10:33;6.00;;;1.30;;
4885;SDS011;2457;51.788;6.136;2023-04-24T14:13:00;9.00;;;1.30;;
4885;SDS011;2457;51.788;6.136;2023-04-24T14:15:27;4.93;;;1.23;;
4885;SDS011;2457;51.788;6.136;2023-04-24T14:17:54;6.00;;;1.53;;
4885;SDS011;2457;51.788;6.136;2023-04-24T14:20:22;6.00;;;1.10;;
4885;SDS011;2457;51.788;6.136;2023-04-24T14:22:49;5.53;;;1.10;;
4885;SDS011;2457;51.788;6.136;2023-04-24T14:25:16;8.60;;;1.60;;
4885;SDS011;2457;51.788;6.136;2023-04-24T14:27:44;5.53;;;1.43;;
4885;SDS011;2457;51.788;6.136;2023-04-24T14:30:11;7.67;;;1.50;;
4885;SDS011;2457;51.788;6.136;2023-04-24T14:32:39;4.33;;;1.30;;
4885;SDS011;2457;51.788;6.136;2023-04-24T14:35:07;10.33;;;1.73;;
4885;SDS011;2457;51.788;6.136;2023-04-24T14:37:34;11.50;;;2.30;;
4885;SDS011;2457;51.788;6.136;2023-04-24T14:40:02;7.63;;;1.67;;
4885;SDS011;2457;51.788;6.136;2023-04-24T14:42:31;7.20;;;1.60;;
4885;SDS011;2457;51.788;6.136;2023-04-24T14:44:58;4.93;;;1.33;;
4885;SDS011;2457;51.788;6.136;2023-04-24T14:47:26;6.53;;;1.83;;
4885;SDS011;2457;51.788;6.136;2023-04-24T14:49:53;10.80;;;1.40;;
4885;SDS011;2457;51.788;6.136;2023-04-24T14:52:20;8.73;;;1.93;;
4885;SDS011;2457;51.788;6.136;2023-04-24T14:54:47;4.93;;;1.50;;
4885;SDS011;2457;51.788;6.136;2023-04-24T14:57:15;9.20;;;1.60;;
4885;SDS011;2457;51.788;6.136;2023-04-24T14:59:42;4.53;;;1.40;;
4885;SDS011;2457;51.788;6.136;2023-04-24T15:02:09;5.50;;;1.80;;
4885;SDS011;2457;51.788;6.136;2023-04-24T15:04:37;7.20;;;1.70;;
4885;SDS011;2457;51.788;6.136;2023-04-24T15:07:04;9.23;;;2.13;;
4885;SDS011;2457;51.788;6.136;2023-04-24T15:09:31;5.50;;;1.80;;
4885;SDS011;2457;51.788;6.136;2023-04-24T15:11:58;4.47;;;1.37;;
4885;SDS011;2457;51.788;6.136;2023-04-24T15:14:26;6.17;;;1.90;;
4885;SDS011;2457;51.788;6.136;2023-04-24T15:16:53;8.70;;;2.00;;
4885;SDS011;2457;51.788;6.136;2023-04-24T15:19:20;10.70;;;2.00;;
4885;SDS011;2457;51.788;6.136;2023-04-24T15:21:48;8.37;;;1.80;;